Pagrindinis puslapis
METAR-TAF:

METAR-TAF

Oro uostai :

Pirassununga, San Paulas, Brazilija

platuma: 21-59S, ilguma: 047-20W, Aukštis: 597 m

Dabartinis oras

Ataskaita buvo paskelbta 1 valandą ir 28 minutes, ne 22:00 UTC
Vėjas 3 kt iš Pietų/Pietryčių
Temperatūra 23°C
Drėgmė 65%
Slėgis 1015 hPa
Matomumas 10 km arba daugiau
nėra debesų žemiau 1500 m ir nėra kamuolinių lietaus debesų

METAR: SBYS 052200Z 16003KT CAVOK 23/16 Q1015

Laikas: 20:28 (23:28 UTC)

Prognozė

Ataskaita buvo paskelbta 8 valandos ir 28 minutes, ne 15:00 UTC
Prognozė galioja nuo 05 metu 18 UTC su 06 metu 06 UTC
Vėjas 5 kt iš Vakarų
Matomumas 10 km arba daugiau
nėra debesų žemiau 1500 m ir nėra kamuolinių lietaus debesų
Tapsmas
nuo 05 metu 22 UTC su 05 metu 24 UTC
Vėjas 5 kt iš Pietų/Pietvakarių
Tapsmas
nuo 06 metu 04 UTC su 06 metu 06 UTC
Vėjas 3 kt iš Rytų

TAF: SBYS 051500Z 0518/0606 28005KT CAVOK TX29/0518Z TN15/0606Z BECMG 0522/0524 20005KT BECMG 0604/0606 09003KT RMK PAY

Orai ataskaitas ir orų prognozės (METAR, TAF).

turimą stotys yra geltonos ir raudonos taškus žemėlapyje.

Perkelti pele per norėdami pamatyti stoties vardą.

Tada spustelėkite, norėdami matyti oro stebėjimo ir prognozės.

Norėdami pakeisti žemėlapį: spustelėkite ant žalios mygtukų su juodo kryžiaus žemyn,; žalią mygtuką su brūkšneliu, jei norite nutolinti; arba žalių rodyklių gretimoms žemėlapius.


METAR-TAF: